createdAt,value
2022-11-05T00:00:17.096Z,96134.41
2022-11-05T00:03:02.800Z,96135.63
2022-11-05T00:05:51.314Z,96142.25
2022-11-05T00:08:37.260Z,96137.31
2022-11-05T00:11:04.347Z,96142.97
2022-11-05T00:13:49.891Z,96141.50
2022-11-05T00:16:35.685Z,96136.56
2022-11-05T00:19:09.276Z,96142.72
2022-11-05T00:21:57.193Z,96145.41
2022-11-05T00:24:43.455Z,96147.81
2022-11-05T00:27:11.164Z,96148.28
2022-11-05T00:29:38.188Z,96155.16
2022-11-05T00:32:05.388Z,96154.41
2022-11-05T00:34:32.443Z,96158.59
2022-11-05T00:36:59.602Z,96161.03
2022-11-05T00:39:26.655Z,96165.69
2022-11-05T00:42:12.460Z,96164.94
2022-11-05T00:44:57.966Z,96163.00
2022-11-05T00:47:43.996Z,96169.13
2022-11-05T00:50:12.012Z,96174.97
2022-11-05T00:52:58.146Z,96172.00
2022-11-05T00:55:27.166Z,96178.13
2022-11-05T00:57:54.943Z,96178.88
2022-11-05T01:00:23.588Z,96183.25
2022-11-05T01:02:50.786Z,96188.19
2022-11-05T01:05:18.104Z,96181.03
2022-11-05T01:07:45.127Z,96186.69
2022-11-05T01:10:12.358Z,96193.75
2022-11-05T01:12:39.435Z,96197.22
2022-11-05T01:15:07.246Z,96195.72
2022-11-05T01:17:34.352Z,96196.91
2022-11-05T01:20:01.546Z,96211.91
2022-11-05T01:22:28.504Z,96211.16
2022-11-05T01:24:55.613Z,96212.34
2022-11-05T01:27:22.636Z,96200.09
2022-11-05T01:29:52.407Z,96202.03
2022-11-05T01:32:19.506Z,96205.50
2022-11-05T01:34:46.703Z,96214.78
2022-11-05T01:37:13.926Z,96207.44
2022-11-05T01:39:41.247Z,96211.34
2022-11-05T01:42:21.155Z,96215.69
2022-11-05T01:44:57.907Z,96215.13
2022-11-05T01:47:28.244Z,96222.47
2022-11-05T01:50:02.510Z,96225.81
2022-11-05T01:52:33.935Z,96226.84
2022-11-05T01:55:02.508Z,96230.63
2022-11-05T01:57:30.918Z,96228.13
2022-11-05T02:00:01.375Z,96235.16
2022-11-05T02:02:30.120Z,96241.00
2022-11-05T02:05:03.845Z,96238.78
2022-11-05T02:07:31.576Z,96240.44
2022-11-05T02:10:06.432Z,96237.00
2022-11-05T02:12:34.548Z,96249.91
2022-11-05T02:15:01.841Z,96240.50
2022-11-05T02:17:52.056Z,96243.66
2022-11-05T02:20:26.154Z,96235.31
2022-11-05T02:23:14.764Z,96237.72
2022-11-05T02:26:27.330Z,96238.44
2022-11-05T02:29:06.688Z,96242.03
2022-11-05T02:31:42.018Z,96242.78
2022-11-05T02:34:33.962Z,96239.97
2022-11-05T02:37:17.541Z,96237.44
2022-11-05T02:40:17.796Z,96240.00
2022-11-05T02:42:54.239Z,96247.81
2022-11-05T02:45:31.727Z,96241.38
2022-11-05T02:48:26.260Z,96244.41
2022-11-05T02:50:58.175Z,96247.72
2022-11-05T02:53:38.282Z,96255.22
2022-11-05T02:56:16.504Z,96258.84
2022-11-05T02:58:43.563Z,96253.59
2022-11-05T03:01:13.894Z,96262.91
2022-11-05T03:03:51.057Z,96270.25
2022-11-05T03:06:33.269Z,96267.56
2022-11-05T03:09:47.753Z,96274.13
2022-11-05T03:12:25.102Z,96280.41
2022-11-05T03:15:04.295Z,96279.69
2022-11-05T03:18:03.827Z,96289.84
2022-11-05T03:20:36.215Z,96290.25
2022-11-05T03:23:35.584Z,96292.69
2022-11-05T03:26:08.532Z,96294.75
2022-11-05T03:28:39.057Z,96295.97
2022-11-05T03:31:08.642Z,96302.56
2022-11-05T03:33:39.364Z,96313.63
2022-11-05T03:36:14.233Z,96309.91
2022-11-05T03:38:44.781Z,96308.56
2022-11-05T03:41:14.468Z,96316.94
2022-11-05T03:43:47.258Z,96313.22
2022-11-05T03:46:21.770Z,96312.47
2022-11-05T03:48:54.024Z,96321.28
2022-11-05T03:51:24.178Z,96318.00
2022-11-05T03:53:56.735Z,96322.19
2022-11-05T03:56:33.594Z,96332.66
2022-11-05T03:59:03.005Z,96335.81
2022-11-05T04:01:30.860Z,96337.31
2022-11-05T04:03:58.367Z,96332.22
2022-11-05T04:06:44.168Z,96338.81
2022-11-05T04:09:30.236Z,96337.91
2022-11-05T04:12:15.681Z,96339.56
2022-11-05T04:14:42.814Z,96331.94
2022-11-05T04:17:10.141Z,96337.78
2022-11-05T04:20:00.937Z,96339.41
2022-11-05T04:22:49.175Z,96336.72
2022-11-05T04:25:17.464Z,96345.56
2022-11-05T04:27:44.967Z,96341.09
2022-11-05T04:30:19.752Z,96349.00
2022-11-05T04:33:11.078Z,96355.13
2022-11-05T04:35:42.034Z,96349.44
2022-11-05T04:38:12.378Z,96353.63
2022-11-05T04:40:42.334Z,96354.81
2022-11-05T04:43:15.628Z,96352.59
2022-11-05T04:45:43.740Z,96346.47
2022-11-05T04:48:11.676Z,96358.75
2022-11-05T04:50:39.610Z,96352.59
2022-11-05T04:53:06.595Z,96358.13
2022-11-05T04:55:33.676Z,96357.69
2022-11-05T04:58:00.673Z,96352.91
2022-11-05T05:00:27.865Z,96356.03
2022-11-05T05:02:55.008Z,96358.88
2022-11-05T05:05:23.301Z,96363.97
2022-11-05T05:07:50.284Z,96371.00
2022-11-05T05:10:17.626Z,96367.25
2022-11-05T05:12:44.712Z,96375.50
2022-11-05T05:15:12.908Z,96375.50
2022-11-05T05:17:39.885Z,96384.47
2022-11-05T05:20:25.996Z,96381.03
2022-11-05T05:22:55.823Z,96379.84
2022-11-05T05:25:23.600Z,96391.94
2022-11-05T05:27:51.871Z,96386.72
2022-11-05T05:30:18.905Z,96393.59
2022-11-05T05:32:46.326Z,96393.28
2022-11-05T05:35:13.390Z,96399.25
2022-11-05T05:37:40.523Z,96395.53
2022-11-05T05:40:08.951Z,96399.25
2022-11-05T05:42:40.309Z,96395.50
2022-11-05T05:45:10.320Z,96398.50
2022-11-05T05:47:37.429Z,96394.47
2022-11-05T05:50:04.892Z,96399.84
2022-11-05T05:52:32.543Z,96401.34
2022-11-05T05:54:59.802Z,96402.53
2022-11-05T05:57:26.863Z,96398.34
2022-11-05T05:59:54.161Z,96412.13
2022-11-05T06:02:21.291Z,96411.34
2022-11-05T06:04:48.637Z,96418.69
2022-11-05T06:07:15.575Z,96424.81
2022-11-05T06:09:43.235Z,96433.03
2022-11-05T06:12:10.280Z,96434.66
2022-11-05T06:14:37.363Z,96441.66
2022-11-05T06:17:04.424Z,96438.53
2022-11-05T06:19:31.642Z,96442.13
2022-11-05T06:21:58.732Z,96431.81
2022-11-05T06:24:25.880Z,96435.84
2022-11-05T06:26:52.824Z,96441.66
2022-11-05T06:29:20.054Z,96448.09
2022-11-05T06:31:47.320Z,96443.31
2022-11-05T06:34:14.657Z,96443.31
2022-11-05T06:36:41.731Z,96454.94
2022-11-05T06:39:12.997Z,96460.00
2022-11-05T06:42:04.089Z,96460.88
2022-11-05T06:44:28.051Z,96460.88
2022-11-05T06:46:55.211Z,96463.72
2022-11-05T06:49:25.847Z,96465.50
2022-11-05T06:51:53.292Z,96467.25
2022-11-05T06:54:20.417Z,96471.28
2022-11-05T06:56:47.555Z,96475.16
2022-11-05T06:59:14.976Z,96485.59
2022-11-05T07:01:42.313Z,96499.03
2022-11-05T07:04:12.422Z,96499.91
2022-11-05T07:06:39.603Z,96491.09
2022-11-05T07:09:06.644Z,96496.78
2022-11-05T07:11:33.783Z,96505.59
2022-11-05T07:14:01.459Z,96503.28
2022-11-05T07:16:28.512Z,96512.66
2022-11-05T07:18:56.161Z,96512.84
2022-11-05T07:21:23.321Z,96510.88
2022-11-05T07:23:50.336Z,96518.25
2022-11-05T07:26:19.269Z,96516.34
2022-11-05T07:28:46.434Z,96525.16
2022-11-05T07:31:13.614Z,96531.47
2022-11-05T07:33:41.141Z,96529.69
2022-11-05T07:36:08.683Z,96541.66
2022-11-05T07:38:35.853Z,96543.59
2022-11-05T07:41:03.163Z,96536.63
2022-11-05T07:43:30.394Z,96540.53
2022-11-05T07:45:57.598Z,96544.44
2022-11-05T07:48:24.833Z,96542.38
2022-11-05T07:50:53.563Z,96546.88
2022-11-05T07:53:23.469Z,96553.22
2022-11-05T07:55:52.822Z,96557.69
2022-11-05T07:58:20.190Z,96558.91
2022-11-05T08:00:48.173Z,96564.44
2022-11-05T08:03:17.687Z,96564.28
2022-11-05T08:05:47.765Z,96567.84
2022-11-05T08:08:19.804Z,96564.06
2022-11-05T08:10:47.706Z,96563.09
2022-11-05T08:13:15.524Z,96562.13
2022-11-05T08:15:43.582Z,96572.00
2022-11-05T08:18:16.023Z,96578.34
2022-11-05T08:20:44.656Z,96577.06
2022-11-05T08:23:12.243Z,96577.25
2022-11-05T08:25:40.283Z,96575.56
2022-11-05T08:28:10.860Z,96575.88
2022-11-05T08:30:38.028Z,96579.22
2022-11-05T08:33:10.673Z,96574.28
2022-11-05T08:35:38.874Z,96575.03
2022-11-05T08:38:07.409Z,96592.03
2022-11-05T08:40:36.360Z,96591.47
2022-11-05T08:43:05.469Z,96592.97
2022-11-05T08:45:33.656Z,96595.56
2022-11-05T08:48:11.494Z,96593.19
2022-11-05T08:50:39.153Z,96600.34
2022-11-05T08:53:07.374Z,96598.09
2022-11-05T08:55:35.623Z,96598.00
2022-11-05T08:58:07.785Z,96596.41
2022-11-05T09:00:36.930Z,96602.34
2022-11-05T09:03:06.018Z,96607.59
2022-11-05T09:05:38.356Z,96609.84
2022-11-05T09:08:11.901Z,96607.59
2022-11-05T09:10:40.595Z,96609.56
2022-11-05T09:13:11.737Z,96600.78
2022-11-05T09:15:42.838Z,96596.56
2022-11-05T09:18:13.702Z,96599.53
2022-11-05T09:20:40.789Z,96602.03
2022-11-05T09:23:08.788Z,96603.53
2022-11-05T09:25:36.693Z,96609.75
2022-11-05T09:28:17.173Z,96617.50
2022-11-05T09:30:50.111Z,96604.00
2022-11-05T09:33:20.056Z,96608.56
2022-11-05T09:35:47.404Z,96610.13
2022-11-05T09:38:14.915Z,96617.97
2022-11-05T09:40:50.064Z,96613.22
2022-11-05T09:43:20.810Z,96612.56
2022-11-05T09:45:51.701Z,96613.41
2022-11-05T09:48:22.937Z,96629.47
2022-11-05T09:50:51.486Z,96628.91
2022-11-05T09:53:20.140Z,96627.13
2022-11-05T09:55:53.802Z,96632.53
2022-11-05T09:58:32.441Z,96636.38
2022-11-05T10:01:00.129Z,96640.47
2022-11-05T10:03:30.314Z,96633.66
2022-11-05T10:06:08.392Z,96635.81
2022-11-05T10:08:42.928Z,96636.84
2022-11-05T10:11:25.152Z,96642.06
2022-11-05T10:14:00.436Z,96649.16
2022-11-05T10:16:37.780Z,96652.13
2022-11-05T10:19:16.324Z,96652.41
2022-11-05T10:24:30.888Z,96654.47
2022-11-05T10:26:58.385Z,96649.72
2022-11-05T10:29:32.684Z,96645.91
2022-11-05T10:32:03.435Z,96651.41
2022-11-05T10:34:37.088Z,96642.91
2022-11-05T10:37:05.025Z,96640.66
2022-11-05T10:39:34.117Z,96652.22
2022-11-05T10:42:45.489Z,96657.38
2022-11-05T10:45:24.432Z,96654.84
2022-11-05T10:48:13.971Z,96658.59
2022-11-05T10:50:41.593Z,96654.00
2022-11-05T10:53:18.886Z,96650.56
2022-11-05T10:55:49.683Z,96657.75
2022-11-05T10:58:16.935Z,96653.75
2022-11-05T11:01:11.036Z,96658.13
2022-11-05T11:03:47.652Z,96642.84
2022-11-05T11:06:26.747Z,96666.66
2022-11-05T11:09:00.275Z,96660.19
2022-11-05T11:11:30.797Z,96666.06
2022-11-05T11:13:58.037Z,96668.59
2022-11-05T11:16:27.654Z,96665.16
2022-11-05T11:19:01.176Z,96671.59
2022-11-05T11:21:30.149Z,96678.13
2022-11-05T11:24:03.495Z,96666.47
2022-11-05T11:26:39.015Z,96665.16
2022-11-05T11:29:14.540Z,96663.94
2022-11-05T11:31:42.427Z,96661.31
2022-11-05T11:34:19.916Z,96661.69
2022-11-05T11:36:50.755Z,96668.59
2022-11-05T11:39:25.066Z,96657.84
2022-11-05T11:41:55.127Z,96661.50
2022-11-05T11:44:37.042Z,96658.25
2022-11-05T11:47:16.921Z,96645.16
2022-11-05T11:49:46.260Z,96655.25
2022-11-05T11:52:34.565Z,96665.75
2022-11-05T11:55:28.085Z,96672.22
2022-11-05T11:58:08.643Z,96666.69
2022-11-05T12:00:50.879Z,96661.66
2022-11-05T12:03:47.046Z,96663.06
2022-11-05T12:06:50.802Z,96659.00
2022-11-05T12:09:48.612Z,96659.72
2022-11-05T12:12:21.356Z,96656.75
2022-11-05T12:15:24.963Z,96651.53
2022-11-05T12:18:03.370Z,96644.59
2022-11-05T12:20:31.427Z,96634.25
2022-11-05T12:23:04.121Z,96630.41
2022-11-05T12:25:51.954Z,96639.44
2022-11-05T12:29:16.821Z,96638.91
2022-11-05T12:31:55.265Z,96641.19
2022-11-05T12:35:13.397Z,96634.84
2022-11-05T12:38:09.981Z,96644.19
2022-11-05T12:41:08.085Z,96646.97
2022-11-05T12:44:13.085Z,96641.00
2022-11-05T12:47:11.671Z,96646.75
2022-11-05T12:49:55.312Z,96658.59
2022-11-05T12:52:40.702Z,96668.78
2022-11-05T12:55:14.518Z,96666.16
2022-11-05T12:57:44.778Z,96655.78
2022-11-05T13:00:19.878Z,96657.00
2022-11-05T13:03:08.893Z,96660.72
2022-11-05T13:05:45.483Z,96659.50
2022-11-05T13:08:21.043Z,96665.19
2022-11-05T13:11:06.696Z,96655.25
2022-11-05T13:13:39.770Z,96666.63
2022-11-05T13:16:25.101Z,96654.03
2022-11-05T13:18:57.050Z,96651.78
2022-11-05T13:21:29.151Z,96654.47
2022-11-05T13:24:20.875Z,96658.97
2022-11-05T13:26:54.991Z,96658.31
2022-11-05T13:29:48.122Z,96664.38
2022-11-05T13:32:31.453Z,96650.63
2022-11-05T13:35:08.824Z,96655.25
2022-11-05T13:37:58.326Z,96649.44
2022-11-05T13:41:01.223Z,96669.72
2022-11-05T13:43:47.020Z,96655.50
2022-11-05T13:46:32.268Z,96661.69
2022-11-05T13:49:25.314Z,96663.66
2022-11-05T13:51:57.190Z,96672.41
2022-11-05T13:54:58.021Z,96668.66
2022-11-05T13:57:46.803Z,96667.31
2022-11-05T14:00:24.182Z,96666.84
2022-11-05T14:02:57.435Z,96665.66
2022-11-05T14:05:27.963Z,96655.59
2022-11-05T14:07:56.763Z,96673.31
2022-11-05T14:10:44.429Z,96664.31
2022-11-05T14:13:38.723Z,96672.88
2022-11-05T14:16:09.717Z,96666.00
2022-11-05T14:18:47.265Z,96666.56
2022-11-05T14:21:26.176Z,96664.31
2022-11-05T14:24:11.936Z,96662.22
2022-11-05T14:26:39.002Z,96664.03
2022-11-05T14:29:06.012Z,96667.03
2022-11-05T14:34:49.825Z,96661.31
2022-11-05T14:37:27.661Z,96657.44
2022-11-05T14:39:56.775Z,96663.41
2022-11-05T14:42:28.148Z,96659.22
2022-11-05T14:45:04.650Z,96653.06
2022-11-05T14:47:40.040Z,96653.38
2022-11-05T14:50:31.761Z,96651.56
2022-11-05T14:53:07.450Z,96641.50
2022-11-05T14:55:37.994Z,96635.25
2022-11-05T14:58:17.325Z,96642.84
2022-11-05T15:00:48.639Z,96646.63
2022-11-05T15:03:46.856Z,96657.69
2022-11-05T15:06:33.974Z,96649.47
2022-11-05T15:09:01.054Z,96657.25
2022-11-05T15:11:31.052Z,96656.22
2022-11-05T15:14:16.598Z,96658.63
2022-11-05T15:16:45.418Z,96658.47
2022-11-05T15:19:20.106Z,96652.78
2022-11-05T15:21:48.034Z,96667.03
2022-11-05T15:24:18.469Z,96665.53
2022-11-05T15:26:56.228Z,96660.75
2022-11-05T15:29:27.234Z,96663.75
2022-11-05T15:31:54.468Z,96658.50
2022-11-05T15:34:30.086Z,96661.94
2022-11-05T15:37:02.549Z,96667.94
2022-11-05T15:39:38.592Z,96670.94
2022-11-05T15:42:14.479Z,96675.56
2022-11-05T15:44:45.293Z,96676.16
2022-11-05T15:47:30.352Z,96665.53
2022-11-05T15:50:14.463Z,96668.03
2022-11-05T15:52:51.113Z,96674.94
2022-11-05T15:55:23.898Z,96668.63
2022-11-05T15:57:59.486Z,96668.91
2022-11-05T16:00:29.264Z,96672.09
2022-11-05T16:02:59.586Z,96666.09
2022-11-05T16:05:30.402Z,96672.03
2022-11-05T16:08:02.103Z,96671.75
2022-11-05T16:10:38.209Z,96677.75
2022-11-05T16:13:35.492Z,96679.84
2022-11-05T16:16:05.949Z,96676.06
2022-11-05T16:18:36.236Z,96683.97
2022-11-05T16:21:08.859Z,96680.25
2022-11-05T16:23:48.513Z,96687.69
2022-11-05T16:27:01.282Z,96685.47
2022-11-05T16:29:33.766Z,96689.94
2022-11-05T16:32:04.176Z,96681.84
2022-11-05T16:34:38.149Z,96678.38
2022-11-05T16:37:07.448Z,96684.63
2022-11-05T16:39:34.800Z,96679.09
2022-11-05T16:42:02.099Z,96679.97
2022-11-05T16:44:29.154Z,96678.47
2022-11-05T16:46:56.352Z,96677.44
2022-11-05T16:49:23.307Z,96677.53
2022-11-05T16:51:50.443Z,96674.56
2022-11-05T16:54:17.442Z,96671.88
2022-11-05T16:56:47.165Z,96677.38
2022-11-05T16:59:14.365Z,96685.59
2022-11-05T17:01:43.233Z,96684.84
2022-11-05T17:04:13.579Z,96684.22
2022-11-05T17:06:41.105Z,96682.56
2022-11-05T17:09:08.351Z,96694.66
2022-11-05T17:11:35.933Z,96701.69
2022-11-05T17:14:03.230Z,96697.06
2022-11-05T17:16:30.602Z,96695.56
2022-11-05T17:18:58.094Z,96701.69
2022-11-05T17:21:25.305Z,96702.56
2022-11-05T17:23:53.591Z,96710.34
2022-11-05T17:26:23.115Z,96712.69
2022-11-05T17:28:50.502Z,96716.28
2022-11-05T17:31:18.125Z,96712.69
2022-11-05T17:33:45.517Z,96719.28
2022-11-05T17:36:15.375Z,96718.22
2022-11-05T17:38:43.011Z,96722.72
2022-11-05T17:41:15.705Z,96724.03
2022-11-05T17:43:43.814Z,96717.72
2022-11-05T17:46:13.841Z,96720.09
2022-11-05T17:48:42.032Z,96715.59
2022-11-05T17:51:11.402Z,96726.97
2022-11-05T17:53:38.806Z,96725.31
2022-11-05T17:56:13.672Z,96720.34
2022-11-05T17:58:41.042Z,96722.84
2022-11-05T18:01:23.212Z,96728.09
2022-11-05T18:03:50.453Z,96724.03
2022-11-05T18:06:19.245Z,96722.22
2022-11-05T18:08:46.404Z,96716.97
2022-11-05T18:11:15.947Z,96723.56
2022-11-05T18:13:43.090Z,96729.50
2022-11-05T18:16:11.410Z,96729.34
2022-11-05T18:18:38.524Z,96728.72
2022-11-05T18:21:05.733Z,96728.84
2022-11-05T18:23:34.478Z,96730.81
2022-11-05T18:26:07.960Z,96735.41
2022-11-05T18:28:35.192Z,96739.84
2022-11-05T18:31:02.356Z,96731.88
2022-11-05T18:33:29.695Z,96722.97
2022-11-05T18:35:56.918Z,96739.66
2022-11-05T18:38:26.975Z,96737.72
2022-11-05T18:40:54.516Z,96732.44
2022-11-05T18:43:21.845Z,96743.94
2022-11-05T18:45:56.324Z,96733.31
2022-11-05T18:48:23.502Z,96745.59
2022-11-05T18:50:50.621Z,96744.19
2022-11-05T18:53:17.739Z,96746.00
2022-11-05T18:55:45.073Z,96743.44
2022-11-05T18:58:12.513Z,96742.81
2022-11-05T19:00:40.488Z,96741.31
2022-11-05T19:03:07.889Z,96740.22
2022-11-05T19:05:35.361Z,96744.56
2022-11-05T19:08:02.479Z,96740.69
2022-11-05T19:10:29.468Z,96734.56
2022-11-05T19:12:56.774Z,96733.91
2022-11-05T19:15:23.796Z,96737.47
2022-11-05T19:17:50.930Z,96734.91
2022-11-05T19:20:20.384Z,96738.44
2022-11-05T19:22:47.658Z,96736.63
2022-11-05T19:25:15.007Z,96735.56
2022-11-05T19:27:43.830Z,96739.75
2022-11-05T19:30:11.223Z,96736.00
2022-11-05T19:32:38.387Z,96732.22
2022-11-05T19:35:05.784Z,96729.88
2022-11-05T19:37:34.466Z,96734.50
2022-11-05T19:40:01.476Z,96739.13
2022-11-05T19:42:28.623Z,96736.00
2022-11-05T19:44:55.682Z,96734.91
2022-11-05T19:47:22.880Z,96731.81
2022-11-05T19:49:50.027Z,96729.13
2022-11-05T19:52:17.191Z,96730.63
2022-11-05T19:54:46.261Z,96731.81
2022-11-05T19:57:13.721Z,96727.06
2022-11-05T19:59:40.707Z,96731.13
2022-11-05T20:02:13.284Z,96733.06
2022-11-05T20:04:43.051Z,96725.75
2022-11-05T20:07:10.368Z,96721.16
2022-11-05T20:09:37.611Z,96719.63
2022-11-05T20:12:05.335Z,96724.59
2022-11-05T20:14:33.670Z,96717.69
2022-11-05T20:17:01.576Z,96723.41
2022-11-05T20:19:28.738Z,96718.03
2022-11-05T20:21:59.790Z,96717.56
2022-11-05T20:24:27.251Z,96726.38
2022-11-05T20:26:55.975Z,96727.59
2022-11-05T20:29:26.019Z,96726.28
2022-11-05T20:31:55.224Z,96729.72
2022-11-05T20:34:22.906Z,96726.72
2022-11-05T20:36:50.111Z,96720.47
2022-11-05T20:39:18.499Z,96722.59
2022-11-05T20:41:45.787Z,96726.03
2022-11-05T20:44:13.087Z,96732.16
2022-11-05T20:46:40.666Z,96727.69
2022-11-05T20:49:08.453Z,96731.41
2022-11-05T20:51:35.953Z,96739.94
2022-11-05T20:54:04.085Z,96738.28
2022-11-05T20:56:35.609Z,96738.28
2022-11-05T20:59:03.916Z,96740.69
2022-11-05T21:01:33.095Z,96736.03
2022-11-05T21:04:00.462Z,96739.59
2022-11-05T21:06:27.951Z,96727.69
2022-11-05T21:08:55.775Z,96733.34
2022-11-05T21:11:23.229Z,96734.09
2022-11-05T21:13:50.428Z,96728.44
2022-11-05T21:16:20.013Z,96741.41
2022-11-05T21:18:48.110Z,96736.69
2022-11-05T21:21:20.743Z,96732.50
2022-11-05T21:23:48.282Z,96738.94
2022-11-05T21:26:17.942Z,96740.56
2022-11-05T21:28:45.238Z,96731.75
2022-11-05T21:31:12.323Z,96739.47
2022-11-05T21:33:39.576Z,96734.56
2022-11-05T21:36:09.922Z,96736.03
2022-11-05T21:38:37.856Z,96740.22
2022-11-05T21:41:05.214Z,96741.88
2022-11-05T21:43:32.313Z,96737.66
2022-11-05T21:46:04.562Z,96728.44
2022-11-05T21:48:32.482Z,96731.13
2022-11-05T21:51:18.395Z,96731.88
2022-11-05T21:54:04.362Z,96724.84
2022-11-05T21:56:51.204Z,96734.09
2022-11-05T21:59:40.908Z,96731.13
2022-11-05T22:02:11.533Z,96727.56
2022-11-05T22:04:41.833Z,96727.97
2022-11-05T22:07:11.693Z,96737.34
2022-11-05T22:09:41.905Z,96729.28
2022-11-05T22:12:09.569Z,96722.41
2022-11-05T22:14:36.879Z,96727.97
2022-11-05T22:17:05.002Z,96728.44
2022-11-05T22:19:32.302Z,96724.66
2022-11-05T22:22:00.861Z,96728.53
2022-11-05T22:24:30.694Z,96728.53
2022-11-05T22:27:00.381Z,96721.69
2022-11-05T22:29:29.102Z,96727.06
2022-11-05T22:31:57.285Z,96729.41
2022-11-05T22:34:25.774Z,96737.03
2022-11-05T22:36:53.398Z,96733.59
2022-11-05T22:39:20.764Z,96732.09
2022-11-05T22:41:48.728Z,96748.41
2022-11-05T22:44:17.468Z,96738.09
2022-11-05T22:46:44.951Z,96736.59
2022-11-05T22:49:12.669Z,96729.72
2022-11-05T22:51:40.243Z,96726.28
2022-11-05T22:54:08.220Z,96726.38
2022-11-05T22:56:39.112Z,96731.47
2022-11-05T22:59:07.758Z,96735.75
2022-11-05T23:01:35.615Z,96728.56
2022-11-05T23:04:03.056Z,96725.13
2022-11-05T23:06:52.690Z,96723.63
2022-11-05T23:09:39.650Z,96720.59
2022-11-05T23:12:18.453Z,96713.44
2022-11-05T23:14:45.635Z,96717.00
2022-11-05T23:17:31.529Z,96719.34
2022-11-05T23:20:18.602Z,96719.03
2022-11-05T23:23:04.798Z,96714.53
2022-11-05T23:25:32.032Z,96714.94
2022-11-05T23:27:59.420Z,96718.38
2022-11-05T23:30:27.483Z,96723.34
2022-11-05T23:32:55.915Z,96709.47
2022-11-05T23:35:43.382Z,96706.78
2022-11-05T23:38:29.478Z,96713.34
2022-11-05T23:41:21.545Z,96715.16
2022-11-05T23:44:07.393Z,96734.84
2022-11-05T23:46:53.837Z,96711.72
2022-11-05T23:49:21.543Z,96709.78
2022-11-05T23:51:49.236Z,96700.88
2022-11-05T23:54:16.990Z,96710.53
2022-11-05T23:56:44.052Z,96692.47
2022-11-05T23:59:11.585Z,96698.28
